731-й км

Карта отелей и гостиниц, располагающихся рядом с аэропортом 731-й км :

731-й км Ханты-Мансийский автономный округ - Югра 60° 42' 51.39" N, 73° 39' 47.8584" E
731-й км Ханты-Мансийский автономный округ - Югра 60° 42' 51.39" N, 73° 39' 47.8584" E
Код аэродрома ИКАО
HHL3
Код аэродрома RU
ХХЛ3
Координаты
N60.71428° E073.66329°
Превышение над уровнем моря
40
Основная полоса
06/24
Курс магнитный
063,1/243,1
Длина основной ВПП
18
Ширина основной ВПП
16
Покрытие основной ВПП
Твёрдое
Освещение ВПП
Нет
Тип: 
Вертодром
Класс аэродрома: 
Принадлежность: 
ГА
Статус: 
Действующий
Сайт: 
E-mail аэродрома: 
Страна: 
Россия
Регион: 
Ханты-Мансийский автономный округ - Югра
Город: 
Дополнительная информация: 
Владелец ПП: нет данных.

Найти трансфер

С помощью этой формы Вы можете найти трансфер из аэропорта 731-й км в город, аэропорт или вокзал:

Карта места

Javascript is required to view this map.

Погода в аэропортах:

Авиационная погода в Берлевоге

Регион: 
Погода METAR: 
ENBV 221920Z 01015KT 9999 VCSH FEW008 SCT030 BKN045 00/M06 Q1000
Время наблюдения
2021-10-22T19:20:00Z
Температура C
0.0
Точка росы
-6.0
Направление ветра
10
Скорость ветра (узлы)
15
Метео видимость
6.21
Явления погоды
VCSH
Условия полета
VFR

Авиационная погода в Нижнем Новгороде

Регион: 
Погода METAR: 
UWGG 241700Z 31006MPS 9999 -SHRA OVC010CB 02/01 Q1011 R36R/290050 NOSIG
Время наблюдения
2021-10-24T17:00:00Z
Температура C
2.0
Точка росы
1.0
Направление ветра
310
Скорость ветра (узлы)
12
Метео видимость
6.21
Явления погоды
-SHRA
Условия полета
MVFR
Аэропорт подробнее: 

Авиационная погода в Самсуне

Регион: 
Погода METAR: 
LTFH 241650Z 35016G26KT 8000 -SHRA SCT010 BKN028 BKN080 14/11 Q1024 NOSIG
Время наблюдения
2021-10-24T16:50:00Z
Температура C
14.0
Точка росы
11.0
Направление ветра
350
Скорость ветра (узлы)
16
Метео видимость
4.97
Явления погоды
-SHRA
Условия полета
MVFR

Авиационная погода в Москва - Внуково

Погода METAR: 
UUWW 241700Z 33006MPS 9000 -SHSN BKN031CB 01/M04 Q1022 RMK WS R24 R24/290050 TEMPO 1500 SHSN BKN012CB
Время наблюдения
2021-10-24T17:00:00Z
Температура C
1.0
Точка росы
-4.0
Направление ветра
330
Скорость ветра (узлы)
12
Метео видимость
5.59
Явления погоды
-SHSN
Условия полета
VFR
Аэропорт подробнее: